Time;durP1;ratioP1;P1;durP2;ratioP2;P2;SDS_P1;SDS_P2;PMS_P1;PMS_P2;Temp;Humidity;BMP_temperature;BMP_pressure;BME280_temperature;BME280_humidity;BME280_pressure;Samples;Min_cycle;Max_cycle;Signal;HPM_P1;HPM_P2
2023/11/20 09:40:58;;;;;;;2.33;1.00;;;;;;;16.36;47.60;94947.75;6120238;23;20026;-84
2023/11/20 09:43:27;;;;;;;1.48;1.05;;;;;;;16.54;45.77;94938.25;6096928;23;20021;-86
2023/11/20 09:45:58;;;;;;;2.08;0.93;;;;;;;16.44;49.02;94951.13;6097268;23;20009;-85
2023/11/20 09:48:27;;;;;;;1.88;0.88;;;;;;;16.48;48.95;94944.41;6096750;23;20010;-84
2023/11/20 09:56:04;;;;;;;3.03;0.90;;;;;;;16.99;48.27;94919.50;6127874;23;20029;-85
2023/11/20 09:58:30;;;;;;;1.02;0.80;;;;;;;17.25;48.04;94917.47;6127758;23;20002;-85
2023/11/20 10:01:06;;;;;;;4.45;1.15;;;;;;;17.45;48.10;94925.06;6128155;23;20012;-85
2023/11/20 10:03:35;;;;;;;1.98;0.80;;;;;;;17.83;45.58;94914.09;6128181;23;20005;-85
2023/11/20 11:08:18;;;;;;;2.33;0.70;;;;;;;18.11;42.52;94804.69;6121152;23;20025;-85
2023/11/20 11:23:52;;;;;;;1.73;0.88;;;;;;;17.20;45.00;94802.53;6110584;23;20026;-84
2023/11/20 11:26:38;;;;;;;2.03;0.70;;;;;;;16.80;44.10;94796.09;6097712;23;20014;-85
2023/11/20 11:29:08;;;;;;;2.70;0.95;;;;;;;16.97;43.85;94790.19;6097657;23;20086;-86
2023/11/20 11:31:53;;;;;;;1.55;0.70;;;;;;;16.83;44.62;94788.81;6096943;23;20017;-84
2023/11/20 11:35:10;;;;;;;2.25;1.00;;;;;;;16.48;45.57;94771.16;6096835;23;20006;-85
2023/11/20 11:38:29;;;;;;;2.83;0.90;;;;;;;16.62;45.62;94767.31;6066327;23;20010;-85
2023/11/20 11:41:04;;;;;;;2.30;1.00;;;;;;;16.55;46.56;94766.59;6038217;23;20007;-85
2023/11/20 12:22:17;;;;;;;1.75;0.70;;;;;;;17.62;44.40;94735.84;6113376;23;20028;-85
2023/11/20 12:24:43;;;;;;;1.70;0.80;;;;;;;17.45;43.92;94725.25;6096913;23;20025;-85
2023/11/20 12:30:12;;;;;;;3.35;0.80;;;;;;;17.17;44.43;94716.25;6122291;23;20101;-85
2023/11/20 12:32:37;;;;;;;2.45;0.85;;;;;;;17.17;45.19;94711.81;6097085;23;20013;-84
2023/11/20 12:35:08;;;;;;;1.73;0.90;;;;;;;17.59;44.14;94718.69;6097490;23;20014;-84
2023/11/20 12:37:34;;;;;;;1.75;0.75;;;;;;;17.87;43.37;94715.31;6051209;23;20006;-85
2023/11/20 12:40:00;;;;;;;2.88;0.82;;;;;;;17.85;43.00;94712.13;6096802;23;20013;-85
2023/11/20 12:42:26;;;;;;;2.75;0.80;;;;;;;17.77;43.83;94704.56;6097330;23;20010;-85
2023/11/20 12:44:52;;;;;;;1.63;0.70;;;;;;;17.81;42.92;94695.19;6073295;23;20002;-84
2023/11/20 12:49:56;;;;;;;1.95;0.90;;;;;;;17.71;43.14;94695.78;6125352;23;20049;-85
2023/11/20 12:52:22;;;;;;;1.70;0.80;;;;;;;17.49;44.00;94687.72;6097483;23;20026;-85
2023/11/20 12:54:47;;;;;;;2.20;0.93;;;;;;;17.36;43.82;94688.00;6106412;23;20037;-85
2023/11/20 12:57:13;;;;;;;3.63;1.08;;;;;;;17.46;44.22;94684.78;6097325;23;20010;-84
2023/11/20 12:59:43;;;;;;;2.65;0.80;;;;;;;17.46;43.64;94682.97;6097168;23;20033;-85
2023/11/20 13:02:11;;;;;;;2.10;1.00;;;;;;;17.34;44.14;94663.78;6097525;23;20010;-85
2023/11/20 13:07:03;;;;;;;3.28;1.10;;;;;;;17.72;43.09;94662.38;6120553;23;20025;-85
2023/11/20 13:09:31;;;;;;;2.40;0.60;;;;;;;17.14;44.81;94648.41;6126732;23;20065;-85
2023/11/20 13:11:57;;;;;;;2.65;0.90;;;;;;;17.19;44.19;94656.38;6127129;23;20009;-85
2023/11/20 13:14:25;;;;;;;2.35;1.20;;;;;;;17.08;44.15;94644.88;6102711;23;20028;-84
2023/11/20 13:16:50;;;;;;;2.42;1.10;;;;;;;16.91;45.27;94638.75;6126657;23;20070;-85
2023/11/20 13:24:29;;;;;;;2.05;1.00;;;;;;;16.95;45.37;94635.44;6123670;23;20029;-84
2023/11/20 13:26:54;;;;;;;2.35;0.75;;;;;;;16.86;45.96;94636.81;6073193;23;20018;-84
2023/11/20 13:29:20;;;;;;;3.10;1.00;;;;;;;16.98;44.24;94631.53;6073133;23;20024;-85
2023/11/20 13:31:47;;;;;;;2.40;0.90;;;;;;;16.67;46.04;94625.59;6097143;23;20021;-85
2023/11/20 13:34:16;;;;;;;2.70;1.00;;;;;;;16.83;45.16;94625.97;6123018;23;20022;-85
2023/11/20 13:36:42;;;;;;;2.17;1.05;;;;;;;16.74;45.92;94621.03;6075238;23;20006;-86
2023/11/20 13:39:18;;;;;;;3.08;0.98;;;;;;;16.60;45.25;94627.56;6099193;23;20093;-85
2023/11/20 13:44:14;;;;;;;2.03;0.90;;;;;;;16.84;44.44;94622.31;6123906;23;20018;-85
2023/11/20 13:46:41;;;;;;;3.85;1.10;;;;;;;16.64;45.31;94626.09;6122724;23;20006;-85
2023/11/20 13:49:07;;;;;;;2.30;1.00;;;;;;;16.59;46.10;94620.72;6098996;23;20009;-85
2023/11/20 13:53:59;;;;;;;3.45;1.00;;;;;;;16.58;45.39;94613.84;6122830;23;20022;-85
2023/11/20 13:56:28;;;;;;;1.67;0.95;;;;;;;16.41;45.06;94617.19;6074698;23;20038;-86
2023/11/20 13:58:53;;;;;;;2.53;1.00;;;;;;;16.19;45.41;94610.91;6074898;23;20006;-85
2023/11/20 14:01:21;;;;;;;2.88;1.42;;;;;;;16.06;47.07;94609.28;6074737;23;20013;-86
2023/11/20 14:03:47;;;;;;;3.38;1.20;;;;;;;16.11;46.87;94606.00;6074853;23;20005;-85
2023/11/20 14:06:15;;;;;;;2.75;1.00;;;;;;;16.19;46.85;94616.16;6098971;23;20006;-85
2023/11/20 14:08:41;;;;;;;3.10;1.00;;;;;;;16.11;47.36;94612.03;6098345;23;20089;-85
2023/11/20 14:11:06;;;;;;;6.65;1.40;;;;;;;16.02;46.78;94613.38;6098633;23;20042;-85
2023/11/20 14:13:32;;;;;;;5.68;1.23;;;;;;;16.18;46.56;94617.16;6097860;23;20074;-84
2023/11/20 14:15:57;;;;;;;3.15;1.10;;;;;;;16.06;46.85;94619.00;6074699;23;20006;-86
2023/11/20 14:18:27;;;;;;;4.65;1.30;;;;;;;15.93;47.10;94614.75;6098094;23;20032;-85
2023/11/20 14:20:53;;;;;;;3.33;1.10;;;;;;;15.97;46.89;94613.25;6118858;23;20018;-85
2023/11/20 14:25:43;;;;;;;3.83;1.10;;;;;;;15.83;46.18;94607.44;6138541;23;20025;-85
2023/11/20 14:28:09;;;;;;;3.95;1.00;;;;;;;16.02;46.14;94600.28;6074055;23;20085;-85
2023/11/20 14:30:35;;;;;;;2.08;0.95;;;;;;;15.59;46.67;94593.41;6098899;23;20042;-85
2023/11/20 14:33:00;;;;;;;2.60;1.27;;;;;;;15.73;46.80;94599.28;6098777;23;20065;-85
2023/11/20 14:49:35;;;;;;;4.03;1.10;;;;;;;15.14;49.32;94596.47;6098232;23;20093;-86
2023/11/20 14:52:03;;;;;;;2.35;1.00;;;;;;;15.11;48.21;94594.28;6121866;23;20042;-85
2023/11/20 14:54:28;;;;;;;1.95;1.00;;;;;;;15.12;48.64;94593.28;6122447;23;20014;-85
2023/11/20 14:56:54;;;;;;;2.67;1.15;;;;;;;15.10;48.44;94593.50;6097937;23;20027;-86
2023/11/20 15:04:20;;;;;;;2.47;0.93;;;;;;;15.34;47.56;94599.59;6123305;23;20069;-85
2023/11/20 15:06:47;;;;;;;1.98;1.00;;;;;;;15.40;46.97;94603.16;6126014;23;20088;-85
2023/11/20 15:09:13;;;;;;;3.03;1.00;;;;;;;15.37;47.13;94608.88;6126074;23;20013;-86
2023/11/20 15:11:39;;;;;;;1.35;1.10;;;;;;;15.23;47.12;94600.34;6102422;23;20021;-85
2023/11/20 15:16:29;;;;;;;3.65;1.20;;;;;;;15.15;48.01;94600.66;6122415;23;20101;-85
2023/11/20 15:18:55;;;;;;;3.90;1.08;;;;;;;15.19;48.51;94601.81;6097686;23;20025;-85
2023/11/20 15:23:56;;;;;;;3.03;1.08;;;;;;;15.32;47.84;94593.00;6122875;23;20022;-84
2023/11/20 15:26:23;;;;;;;7.45;1.70;;;;;;;15.21;48.12;94592.75;6081706;23;20014;-85
2023/11/20 15:28:48;;;;;;;19.42;2.45;;;;;;;14.77;48.78;94578.94;6107866;23;20041;-84
2023/11/20 15:31:14;;;;;;;14.10;2.10;;;;;;;14.79;49.01;94587.41;6099119;23;20008;-86
2023/11/20 15:38:44;;;;;;;3.15;1.50;;;;;;;14.35;50.26;94581.38;6125751;23;20026;-85
2023/11/20 15:41:11;;;;;;;3.80;1.30;;;;;;;14.52;49.69;94581.63;6097292;23;20037;-85
2023/11/20 15:43:37;;;;;;;7.97;2.10;;;;;;;14.37;50.37;94561.03;6073482;23;20010;-85
2023/11/20 15:46:04;;;;;;;13.00;2.30;;;;;;;14.63;49.83;94573.06;6097580;23;20010;-85
2023/11/20 15:48:31;;;;;;;7.60;1.92;;;;;;;14.49;49.88;94574.22;6073570;23;20010;-86
2023/11/20 16:44:25;;;;;;;4.15;1.92;;;;;;;14.12;51.67;94555.06;6137151;23;20032;-85
2023/11/20 16:46:52;;;;;;;3.22;1.70;;;;;;;14.27;50.70;94563.34;6067162;23;20029;-85
2023/11/20 16:49:21;;;;;;;;;;;;;;;14.10;50.99;94568.34;6072191;23;20030;-84
2023/11/20 16:51:47;;;;;;;3.60;1.60;;;;;;;14.30;49.59;94562.94;6072504;23;19933;-86
2023/11/20 16:54:12;;;;;;;6.00;2.08;;;;;;;14.30;50.25;94568.16;6069059;23;20010;-85
2023/11/20 16:56:38;;;;;;;4.22;1.77;;;;;;;14.46;49.24;94554.50;6067820;23;20070;-85
2023/11/20 16:59:04;;;;;;;5.60;1.60;;;;;;;14.37;50.25;94558.41;6067492;23;20064;-85
2023/11/20 17:01:30;;;;;;;3.22;1.40;;;;;;;14.25;50.04;94566.19;6044719;23;20117;-85
2023/11/20 17:10:10;;;;;;;3.13;1.88;;;;;;;13.94;50.85;94556.63;6095557;23;20111;-85
2023/11/20 17:12:36;;;;;;;6.15;3.05;;;;;;;14.22;49.80;94563.19;6069913;23;20018;-85
2023/11/20 17:15:05;;;;;;;7.47;4.38;;;;;;;13.87;50.44;94568.94;6045996;23;20138;-85
2023/11/20 17:17:33;;;;;;;5.13;2.97;;;;;;;13.99;50.07;94546.34;6070217;23;20026;-85
2023/11/20 18:41:43;;;;;;;3.00;1.55;;;;;;;13.79;50.92;94603.19;6126065;23;20030;-85
2023/11/20 18:46:34;;;;;;;4.35;1.48;;;;;;;13.80;50.72;94599.56;6116152;23;20085;-86
2023/11/20 18:49:00;;;;;;;4.25;1.50;;;;;;;13.62;51.63;94572.34;6096815;23;20010;-86
2023/11/20 18:51:25;;;;;;;4.03;1.42;;;;;;;13.76;51.17;94588.72;6073693;23;20029;-85
2023/11/20 21:44:53;;;;;;;4.80;1.45;;;;;;;12.57;48.34;94519.69;6139567;23;20022;-84
2023/11/20 21:47:18;;;;;;;7.38;1.35;;;;;;;12.79;48.21;94530.63;6072249;23;20053;-86
2023/11/20 21:49:44;;;;;;;3.08;0.90;;;;;;;12.66;48.78;94537.50;6096364;23;20065;-84
